Time,TemperatureF,DewpointF,PressureIn,WindDirection,WindDirectionDegrees,WindSpeedMPH,WindSpeedGustMPH,Humidity,HourlyPrecipIn,Conditions,Clouds,dailyrainin,SoftwareType,DateUTC
2013-08-06 00:02:00,54.0,54.0,-100.00,WSW,245,4.0,7.0,95,0.00,,,0.00,,2013-08-06 05:02:00,
2013-08-06 00:11:00,54.0,54.0,-100.00,West,260,4.0,6.0,95,0.00,,,0.00,,2013-08-06 05:11:00,
2013-08-06 00:32:00,53.0,52.0,-100.00,West,270,4.0,6.0,95,0.00,,,0.00,,2013-08-06 05:32:00,
2013-08-06 01:11:00,52.0,50.0,-100.00,WSW,250,4.0,5.0,95,0.00,,,0.00,,2013-08-06 06:11:00,
2013-08-06 02:12:00,51.0,50.0,-100.00,West,265,4.0,4.0,95,0.00,,,0.00,,2013-08-06 07:12:00,
2013-08-06 03:01:00,52.0,50.0,-100.00,West,260,2.0,3.0,95,0.00,,,0.00,,2013-08-06 08:01:00,
2013-08-06 05:11:00,49.0,48.0,-100.00,ENE,75,1.0,1.0,95,0.00,,,0.00,,2013-08-06 10:11:00,
2013-08-06 06:01:00,48.0,46.0,-100.00,East,100,2.0,2.0,95,0.00,,,0.00,,2013-08-06 11:01:00,
2013-08-06 06:11:00,48.0,46.0,-100.00,East,85,4.0,4.0,95,0.00,,,0.00,,2013-08-06 11:11:00,
2013-08-06 07:11:00,52.0,50.0,-100.00,SE,140,1.0,2.0,95,0.00,,,0.00,,2013-08-06 12:11:00,
2013-08-06 08:11:00,54.0,54.0,-100.00,SSW,205,4.0,4.0,95,0.00,,,0.00,,2013-08-06 13:11:00,
2013-08-06 08:53:00,56.0,55.0,-100.00,SSW,205,1.0,2.0,95,0.00,,,0.00,,2013-08-06 13:53:00,
2013-08-06 09:01:00,57.0,55.0,-100.00,ESE,120,1.0,2.0,95,0.00,,,0.00,,2013-08-06 14:01:00,
2013-08-06 09:11:00,57.0,55.0,-100.00,SSW,195,2.0,4.0,95,0.00,,,0.00,,2013-08-06 14:11:00,
2013-08-06 10:11:00,60.0,59.0,-100.00,WSW,240,6.0,7.0,94,0.00,,,0.00,,2013-08-06 15:11:00,
2013-08-06 10:33:00,60.0,57.0,-100.00,South,185,4.0,9.0,90,0.00,,,0.00,,2013-08-06 15:33:00,
2013-08-06 11:02:00,60.0,57.0,-100.00,South,170,5.0,7.0,87,0.00,,,0.00,,2013-08-06 16:02:00,
2013-08-06 11:11:00,61.0,57.0,-100.00,South,185,6.0,7.0,87,0.00,,,0.00,,2013-08-06 16:11:00,
2013-08-06 11:32:00,61.0,57.0,-100.00,SSE,160,9.0,13.0,85,0.00,,,0.00,,2013-08-06 16:32:00,
2013-08-06 12:11:00,62.0,57.0,-100.00,SSE,165,6.0,10.0,82,0.00,,,0.00,,2013-08-06 17:11:00,
2013-08-06 12:32:00,64.0,57.0,-100.00,SSE,165,7.0,10.0,76,0.00,,,0.00,,2013-08-06 17:32:00,
2013-08-06 14:11:00,75.0,57.0,-100.00,SSW,205,4.0,8.0,54,0.00,,,0.00,,2013-08-06 19:11:00,
2013-08-06 15:11:00,72.0,61.0,-100.00,NNW,345,4.0,6.0,66,0.00,,,0.00,,2013-08-06 20:11:00,
2013-08-06 15:32:00,72.0,63.0,-100.00,North,10,2.0,5.0,73,0.00,,,0.00,,2013-08-06 20:32:00,
2013-08-06 15:44:00,72.0,61.0,-100.00,North,10,3.0,4.0,67,0.00,,,0.00,,2013-08-06 20:44:00,
2013-08-06 16:01:00,71.0,64.0,-100.00,NW,310,5.0,11.0,78,0.00,,,0.00,,2013-08-06 21:01:00,
2013-08-06 16:11:00,72.0,63.0,-100.00,NW,315,6.0,8.0,72,0.00,,,0.00,,2013-08-06 21:11:00,
2013-08-06 16:32:00,72.0,63.0,-100.00,NW,320,6.0,12.0,70,0.00,,,0.00,,2013-08-06 21:32:00,
2013-08-06 17:01:00,70.0,59.0,-100.00,NNW,330,6.0,8.0,70,0.00,,,0.00,,2013-08-06 22:01:00,
2013-08-06 17:11:00,69.0,59.0,-100.00,NW,310,3.0,7.0,72,0.00,,,0.00,,2013-08-06 22:11:00,
2013-08-06 18:11:00,68.0,61.0,-100.00,WNW,300,1.0,3.0,77,0.00,,,0.00,,2013-08-06 23:11:00,
2013-08-06 18:32:00,68.0,61.0,-100.00,NW,310,1.0,2.0,79,0.00,,,0.00,,2013-08-06 23:32:00,
2013-08-06 18:52:00,68.0,63.0,-100.00,NW,315,3.0,4.0,80,0.00,,,0.00,,2013-08-06 23:52:00,
2013-08-06 19:01:00,67.0,63.0,-100.00,North,355,2.0,4.0,84,0.00,,,0.00,,2013-08-07 00:01:00,
2013-08-06 19:11:00,67.0,63.0,-100.00,NNW,330,1.0,3.0,86,0.00,,,0.00,,2013-08-07 00:11:00,
2013-08-06 19:21:00,67.0,63.0,-100.00,NNW,330,1.0,3.0,86,0.00,,,0.00,,2013-08-07 00:21:00,
2013-08-06 20:01:00,67.0,63.0,-100.00,NNE,20,3.0,6.0,86,0.00,,,0.00,,2013-08-07 01:01:00,
2013-08-06 20:11:00,66.0,61.0,-100.00,NNW,345,7.0,12.0,83,0.00,,,0.00,,2013-08-07 01:11:00,
2013-08-06 20:52:00,64.0,61.0,-100.00,NE,40,6.0,11.0,90,0.00,,,0.00,,2013-08-07 01:52:00,
2013-08-06 21:22:00,63.0,61.0,-100.00,North,0,4.0,10.0,91,0.00,,,0.00,,2013-08-07 02:22:00,
2013-08-06 22:43:00,62.0,59.0,-100.00,NNW,335,4.0,7.0,89,0.00,,,0.00,,2013-08-07 03:43:00,
2013-08-06 23:21:00,61.0,57.0,-100.00,North,0,6.0,12.0,88,0.00,,,0.00,,2013-08-07 04:21:00,
2013-08-06 23:43:00,61.0,57.0,-100.00,NNW,340,3.0,9.0,88,0.00,,,0.00,,2013-08-07 04:43:00,